EAL900 KMIA-MYNN
Flight info
| Callsign | EAL900 |
|---|---|
| Flight time | 0h 30m |
| Altitude | 21000 |
| Route | KLADA2 RAJAY |
| Aircraft | L101/H-SDFGHIRWXY/S |
Departure
| Time | 2026-05-07 07:50 |
|---|---|
| Airport | Miami International Airport (KMIA) |
Arrival
| Time | 2026-05-07 08:21 |
|---|---|
| Airport | Lynden Pindling International Airport (MYNN) |
| Time | Latitude | Longitude | Altitude | Speed | Heading |
|---|---|---|---|---|---|
| 2026-05-07 07:33 | 25.79018 | -80.27888 | 27 ft | 0 kts | 358° |
| 2026-05-07 07:42 | 25.78998 | -80.27887 | 26 ft | 4 kts | 354° |
| 2026-05-07 07:42 | 25.78971 | -80.27884 | 25 ft | 4 kts | 353° |
| 2026-05-07 07:43 | 25.78949 | -80.27874 | 25 ft | 4 kts | 313° |
| 2026-05-07 07:43 | 25.78941 | -80.27849 | 25 ft | 4 kts | 273° |
| 2026-05-07 07:43 | 25.78941 | -80.27838 | 24 ft | 1 kts | 269° |
| 2026-05-07 07:46 | 25.78940 | -80.27878 | 26 ft | 13 kts | 269° |
| 2026-05-07 07:46 | 25.78989 | -80.28032 | 26 ft | 30 kts | 300° |
| 2026-05-07 07:46 | 25.79112 | -80.28268 | 27 ft | 37 kts | 302° |
| 2026-05-07 07:47 | 25.79258 | -80.28494 | 23 ft | 37 kts | 303° |
| 2026-05-07 07:47 | 25.79387 | -80.28745 | 18 ft | 38 kts | 298° |
| 2026-05-07 07:47 | 25.79515 | -80.28992 | 19 ft | 36 kts | 300° |
| 2026-05-07 07:47 | 25.79634 | -80.29230 | 24 ft | 35 kts | 299° |
| 2026-05-07 07:48 | 25.79739 | -80.29441 | 22 ft | 22 kts | 299° |
| 2026-05-07 07:48 | 25.79818 | -80.29598 | 18 ft | 25 kts | 299° |
| 2026-05-07 07:48 | 25.79906 | -80.29776 | 16 ft | 26 kts | 297° |
| 2026-05-07 07:48 | 25.79971 | -80.29970 | 15 ft | 28 kts | 281° |
| 2026-05-07 07:49 | 25.80013 | -80.30115 | 19 ft | 11 kts | 333° |
| 2026-05-07 07:49 | 25.80072 | -80.30089 | 18 ft | 9 kts | 84° |
| 2026-05-07 07:49 | 25.80072 | -80.30085 | 17 ft | 0 kts | 85° |
| 2026-05-07 07:49 | 25.80073 | -80.30069 | 18 ft | 9 kts | 85° |
| 2026-05-07 07:50 | 25.80082 | -80.29931 | 15 ft | 26 kts | 86° |
| 2026-05-07 07:50 | 25.80096 | -80.29592 | 17 ft | 84 kts | 88° |
| 2026-05-07 07:50 | 25.80139 | -80.28595 | 38 ft | 168 kts | 87° |
| 2026-05-07 07:50 | 25.80195 | -80.27217 | 778 ft | 181 kts | 86° |
| 2026-05-07 07:51 | 25.80258 | -80.25788 | 1771 ft | 194 kts | 92° |
| 2026-05-07 07:51 | 25.79917 | -80.24297 | 2410 ft | 197 kts | 117° |
| 2026-05-07 07:51 | 25.79186 | -80.22986 | 3043 ft | 202 kts | 121° |
| 2026-05-07 07:51 | 25.78516 | -80.21592 | 3921 ft | 216 kts | 117° |
| 2026-05-07 07:52 | 25.77948 | -80.20376 | 4395 ft | 242 kts | 118° |
| 2026-05-07 07:52 | 25.77122 | -80.18669 | 5209 ft | 249 kts | 118° |
| 2026-05-07 07:52 | 25.76278 | -80.16947 | 6201 ft | 257 kts | 119° |
| 2026-05-07 07:52 | 25.75401 | -80.15188 | 7137 ft | 263 kts | 119° |
| 2026-05-07 07:53 | 25.74522 | -80.13408 | 8022 ft | 268 kts | 119° |
| 2026-05-07 07:53 | 25.73628 | -80.11595 | 8834 ft | 273 kts | 118° |
| 2026-05-07 07:53 | 25.72823 | -80.09662 | 9628 ft | 278 kts | 110° |
| 2026-05-07 07:53 | 25.72205 | -80.07619 | 10382 ft | 282 kts | 107° |
| 2026-05-07 07:54 | 25.71572 | -80.05537 | 11097 ft | 287 kts | 109° |
| 2026-05-07 07:54 | 25.70867 | -80.03457 | 11812 ft | 290 kts | 109° |
| 2026-05-07 07:54 | 25.70158 | -80.01372 | 12515 ft | 290 kts | 108° |
| 2026-05-07 07:54 | 25.69468 | -79.99274 | 13215 ft | 289 kts | 108° |
| 2026-05-07 07:55 | 25.68776 | -79.97171 | 13847 ft | 292 kts | 109° |
| 2026-05-07 07:55 | 25.68070 | -79.95042 | 14477 ft | 297 kts | 109° |
| 2026-05-07 07:55 | 25.67349 | -79.92880 | 15100 ft | 301 kts | 109° |
| 2026-05-07 07:55 | 25.66619 | -79.90686 | 15713 ft | 305 kts | 109° |
| 2026-05-07 07:56 | 25.65881 | -79.88461 | 16308 ft | 309 kts | 109° |
| 2026-05-07 07:56 | 25.65131 | -79.86207 | 16892 ft | 313 kts | 109° |
| 2026-05-07 07:56 | 25.64372 | -79.83928 | 17452 ft | 318 kts | 109° |
| 2026-05-07 07:56 | 25.63602 | -79.81613 | 17989 ft | 322 kts | 109° |
| 2026-05-07 07:57 | 25.62820 | -79.79264 | 18513 ft | 326 kts | 109° |
| 2026-05-07 07:57 | 25.62031 | -79.76898 | 19023 ft | 329 kts | 109° |
| 2026-05-07 07:57 | 25.61231 | -79.74506 | 19535 ft | 332 kts | 109° |
| 2026-05-07 07:57 | 25.60427 | -79.72088 | 20013 ft | 336 kts | 109° |
| 2026-05-07 07:58 | 25.59628 | -79.69651 | 20499 ft | 338 kts | 108° |
| 2026-05-07 07:58 | 25.58927 | -79.67147 | 20970 ft | 342 kts | 104° |
| 2026-05-07 07:58 | 25.58320 | -79.64573 | 21004 ft | 348 kts | 103° |
| 2026-05-07 07:58 | 25.57673 | -79.61928 | 21020 ft | 374 kts | 105° |
| 2026-05-07 07:59 | 25.56911 | -79.59075 | 21027 ft | 392 kts | 105° |
| 2026-05-07 07:59 | 25.56140 | -79.56184 | 21014 ft | 391 kts | 105° |
| 2026-05-07 07:59 | 25.55401 | -79.53290 | 21011 ft | 390 kts | 104° |
| 2026-05-07 07:59 | 25.54662 | -79.50401 | 21008 ft | 390 kts | 105° |
| 2026-05-07 08:00 | 25.53910 | -79.47525 | 20997 ft | 389 kts | 105° |
| 2026-05-07 08:00 | 25.53155 | -79.44641 | 20989 ft | 389 kts | 105° |
| 2026-05-07 08:00 | 25.52409 | -79.41761 | 20989 ft | 389 kts | 105° |
| 2026-05-07 08:00 | 25.51661 | -79.38880 | 20992 ft | 389 kts | 105° |
| 2026-05-07 08:01 | 25.50910 | -79.35999 | 20993 ft | 389 kts | 105° |
| 2026-05-07 08:01 | 25.50157 | -79.33121 | 20992 ft | 389 kts | 105° |
| 2026-05-07 08:01 | 25.49404 | -79.30242 | 20994 ft | 389 kts | 105° |
| 2026-05-07 08:01 | 25.48654 | -79.27364 | 20993 ft | 389 kts | 105° |
| 2026-05-07 08:02 | 25.47903 | -79.24484 | 20993 ft | 389 kts | 105° |
| 2026-05-07 08:02 | 25.47151 | -79.21615 | 20993 ft | 389 kts | 105° |
| 2026-05-07 08:02 | 25.46386 | -79.18697 | 21007 ft | 408 kts | 105° |
| 2026-05-07 08:02 | 25.45572 | -79.15589 | 21026 ft | 433 kts | 105° |
| 2026-05-07 08:03 | 25.44717 | -79.12326 | 21028 ft | 442 kts | 105° |
| 2026-05-07 08:03 | 25.43855 | -79.09054 | 21017 ft | 443 kts | 105° |
| 2026-05-07 08:03 | 25.42995 | -79.05788 | 21017 ft | 443 kts | 105° |
| 2026-05-07 08:03 | 25.42144 | -79.02547 | 21016 ft | 442 kts | 105° |
| 2026-05-07 08:04 | 25.41284 | -78.99280 | 21017 ft | 442 kts | 105° |
| 2026-05-07 08:04 | 25.40420 | -78.96014 | 21016 ft | 443 kts | 105° |
| 2026-05-07 08:04 | 25.39556 | -78.92746 | 21017 ft | 443 kts | 105° |
| 2026-05-07 08:04 | 25.38697 | -78.89481 | 21016 ft | 443 kts | 105° |
| 2026-05-07 08:05 | 25.37834 | -78.86223 | 21016 ft | 443 kts | 105° |
| 2026-05-07 08:05 | 25.36965 | -78.82952 | 21013 ft | 442 kts | 105° |
| 2026-05-07 08:05 | 25.36102 | -78.79686 | 21014 ft | 442 kts | 105° |
| 2026-05-07 08:05 | 25.35236 | -78.76419 | 21014 ft | 442 kts | 105° |
| 2026-05-07 08:06 | 25.34366 | -78.73153 | 21013 ft | 443 kts | 105° |
| 2026-05-07 08:06 | 25.33498 | -78.69892 | 21014 ft | 443 kts | 105° |
| 2026-05-07 08:06 | 25.32651 | -78.66695 | 21008 ft | 416 kts | 105° |
| 2026-05-07 08:06 | 25.31866 | -78.63763 | 20993 ft | 381 kts | 105° |
| 2026-05-07 08:07 | 25.31143 | -78.61058 | 20985 ft | 357 kts | 104° |
| 2026-05-07 08:07 | 25.30430 | -78.58452 | 21000 ft | 353 kts | 107° |
| 2026-05-07 08:07 | 25.29617 | -78.55885 | 21008 ft | 355 kts | 108° |
| 2026-05-07 08:07 | 25.28814 | -78.53300 | 21039 ft | 355 kts | 106° |
| 2026-05-07 08:08 | 25.28067 | -78.50695 | 20822 ft | 356 kts | 105° |
| 2026-05-07 08:08 | 25.27313 | -78.48083 | 20597 ft | 354 kts | 106° |
| 2026-05-07 08:08 | 25.26542 | -78.45510 | 20371 ft | 352 kts | 107° |
| 2026-05-07 08:08 | 25.25778 | -78.42950 | 20150 ft | 350 kts | 106° |
| 2026-05-07 08:09 | 25.25031 | -78.40426 | 19929 ft | 349 kts | 106° |
| 2026-05-07 08:09 | 25.24281 | -78.37881 | 19705 ft | 347 kts | 106° |
| 2026-05-07 08:09 | 25.23533 | -78.35352 | 19481 ft | 346 kts | 106° |
| 2026-05-07 08:09 | 25.22781 | -78.32830 | 19259 ft | 345 kts | 107° |
| 2026-05-07 08:10 | 25.22034 | -78.30318 | 18937 ft | 344 kts | 107° |
| 2026-05-07 08:10 | 25.21288 | -78.27804 | 18532 ft | 342 kts | 106° |
| 2026-05-07 08:10 | 25.20548 | -78.25316 | 18143 ft | 340 kts | 106° |
| 2026-05-07 08:10 | 25.19812 | -78.22841 | 17740 ft | 338 kts | 107° |
| 2026-05-07 08:11 | 25.19079 | -78.20392 | 17342 ft | 335 kts | 107° |
| 2026-05-07 08:11 | 25.18354 | -78.17956 | 16943 ft | 332 kts | 107° |
| 2026-05-07 08:11 | 25.17637 | -78.15548 | 16547 ft | 329 kts | 107° |
| 2026-05-07 08:11 | 25.16922 | -78.13150 | 16147 ft | 327 kts | 107° |
| 2026-05-07 08:12 | 25.16210 | -78.10778 | 15742 ft | 324 kts | 107° |
| 2026-05-07 08:12 | 25.15508 | -78.08424 | 15342 ft | 321 kts | 107° |
| 2026-05-07 08:12 | 25.14814 | -78.06088 | 14944 ft | 319 kts | 107° |
| 2026-05-07 08:12 | 25.14121 | -78.03779 | 14544 ft | 316 kts | 107° |
| 2026-05-07 08:13 | 25.13431 | -78.01482 | 14134 ft | 314 kts | 107° |
| 2026-05-07 08:13 | 25.12747 | -77.99203 | 13739 ft | 311 kts | 107° |
| 2026-05-07 08:13 | 25.12298 | -77.97702 | 13474 ft | 310 kts | 107° |
| 2026-05-07 08:13 | 25.11626 | -77.95452 | 12926 ft | 306 kts | 107° |
| 2026-05-07 08:14 | 25.10962 | -77.93243 | 12353 ft | 302 kts | 107° |
| 2026-05-07 08:14 | 25.10307 | -77.91071 | 11781 ft | 299 kts | 107° |
| 2026-05-07 08:14 | 25.09451 | -77.88222 | 11020 ft | 295 kts | 107° |
| 2026-05-07 08:14 | 25.09016 | -77.86772 | 10627 ft | 294 kts | 108° |
| 2026-05-07 08:15 | 25.08376 | -77.84639 | 10067 ft | 292 kts | 108° |
| 2026-05-07 08:15 | 25.07736 | -77.82517 | 9482 ft | 291 kts | 108° |
| 2026-05-07 08:15 | 25.07100 | -77.80409 | 8908 ft | 288 kts | 108° |
| 2026-05-07 08:15 | 25.06472 | -77.78324 | 8335 ft | 284 kts | 108° |
| 2026-05-07 08:16 | 25.05857 | -77.76277 | 7633 ft | 279 kts | 109° |
| 2026-05-07 08:16 | 25.05254 | -77.74281 | 6777 ft | 270 kts | 109° |
| 2026-05-07 08:16 | 25.04672 | -77.72357 | 5907 ft | 266 kts | 109° |
| 2026-05-07 08:16 | 25.04098 | -77.70453 | 5032 ft | 262 kts | 109° |
| 2026-05-07 08:17 | 25.03551 | -77.68544 | 4153 ft | 257 kts | 102° |
| 2026-05-07 08:17 | 25.03375 | -77.66603 | 3283 ft | 254 kts | 89° |
| 2026-05-07 08:17 | 25.03473 | -77.64670 | 2509 ft | 248 kts | 87° |
| 2026-05-07 08:17 | 25.03529 | -77.62883 | 2481 ft | 221 kts | 90° |
| 2026-05-07 08:18 | 25.03515 | -77.61275 | 2484 ft | 197 kts | 91° |
| 2026-05-07 08:18 | 25.03513 | -77.59885 | 2437 ft | 167 kts | 90° |
| 2026-05-07 08:18 | 25.03510 | -77.58630 | 2066 ft | 158 kts | 90° |
| 2026-05-07 08:18 | 25.03500 | -77.57382 | 1752 ft | 166 kts | 89° |
| 2026-05-07 08:19 | 25.03487 | -77.56148 | 1459 ft | 161 kts | 88° |
| 2026-05-07 08:19 | 25.03521 | -77.54968 | 1302 ft | 146 kts | 87° |
| 2026-05-07 08:19 | 25.03543 | -77.53881 | 1003 ft | 142 kts | 87° |
| 2026-05-07 08:19 | 25.03570 | -77.52773 | 775 ft | 149 kts | 88° |
| 2026-05-07 08:20 | 25.03595 | -77.51606 | 651 ft | 147 kts | 87° |
| 2026-05-07 08:20 | 25.03593 | -77.50499 | 400 ft | 146 kts | 87° |
| 2026-05-07 08:20 | 25.03592 | -77.49338 | 270 ft | 154 kts | 88° |
| 2026-05-07 08:20 | 25.03590 | -77.48238 | 43 ft | 134 kts | 86° |
| 2026-05-07 08:21 | 25.03601 | -77.47392 | 23 ft | 76 kts | 90° |
| 2026-05-07 08:21 | 25.03604 | -77.46980 | 22 ft | 38 kts | 90° |
| 2026-05-07 08:21 | 25.03603 | -77.46810 | 23 ft | 8 kts | 90° |
| 2026-05-07 08:21 | 25.03603 | -77.46775 | 25 ft | 15 kts | 90° |
| 2026-05-07 08:22 | 25.03601 | -77.46543 | 22 ft | 39 kts | 90° |
| 2026-05-07 08:22 | 25.03605 | -77.46239 | 24 ft | 39 kts | 89° |
| 2026-05-07 08:22 | 25.03604 | -77.45958 | 21 ft | 38 kts | 89° |
| 2026-05-07 08:22 | 25.03606 | -77.45680 | 23 ft | 22 kts | 89° |
| 2026-05-07 08:23 | 25.03645 | -77.45625 | 24 ft | 0 kts | 347° |
| 2026-05-07 08:23 | 25.03646 | -77.45625 | 21 ft | 2 kts | 343° |
| 2026-05-07 08:23 | 25.03650 | -77.45629 | 21 ft | 1 kts | 290° |
| 2026-05-07 08:23 | 25.03636 | -77.45658 | 23 ft | 11 kts | 233° |
| 2026-05-07 08:24 | 25.03611 | -77.45777 | 23 ft | 22 kts | 270° |
| 2026-05-07 08:24 | 25.03677 | -77.45893 | 23 ft | 21 kts | 314° |
| 2026-05-07 08:24 | 25.03769 | -77.45931 | 23 ft | 18 kts | 39° |
| 2026-05-07 08:24 | 25.03857 | -77.45859 | 21 ft | 10 kts | 353° |
| 2026-05-07 08:25 | 25.03927 | -77.45924 | 21 ft | 22 kts | 316° |
| 2026-05-07 08:25 | 25.04064 | -77.46065 | 20 ft | 32 kts | 315° |
| 2026-05-07 08:25 | 25.04239 | -77.46265 | 21 ft | 41 kts | 314° |
| 2026-05-07 08:25 | 25.04444 | -77.46495 | 22 ft | 44 kts | 314° |
| 2026-05-07 08:26 | 25.04713 | -77.46725 | 21 ft | 14 kts | 29° |
| 2026-05-07 08:26 | 25.04779 | -77.46709 | 21 ft | 0 kts | 326° |
| 2026-05-07 08:26 | 25.04797 | -77.46727 | 20 ft | 3 kts | 313° |
| 2026-05-07 08:27 | 25.04800 | -77.46730 | 20 ft | 0 kts | 314° |